Time;durP1;ratioP1;P1;durP2;ratioP2;P2;SDS_P1;SDS_P2;PMS_P1;PMS_P2;Temp;Humidity;BMP_temperature;BMP_pressure;BME280_temperature;BME280_humidity;BME280_pressure;Samples;Min_cycle;Max_cycle;Signal;HPM_P1;HPM_P2
2022/06/25 00:01:25;;;;;;;2.92;1.20;;;24.40;80.30;;;;;;5015357;28;20073;-75
2022/06/25 00:03:51;;;;;;;5.95;1.38;;;24.40;80.20;;;;;;5015441;28;20022;-76
2022/06/25 00:06:18;;;;;;;2.65;1.20;;;24.40;80.10;;;;;;5014804;28;20036;-75
2022/06/25 00:08:45;;;;;;;4.72;1.30;;;24.40;80.10;;;;;;5015311;28;20080;-78
2022/06/25 00:13:56;;;;;;;4.18;1.40;;;24.30;80.70;;;;;;5015361;28;20119;-75
2022/06/25 00:16:21;;;;;;;3.63;1.25;;;24.30;80.90;;;;;;5014335;28;20479;-76
2022/06/25 00:18:47;;;;;;;4.15;1.30;;;24.30;80.70;;;;;;5014711;28;20045;-76
2022/06/25 00:21:13;;;;;;;3.78;1.50;;;24.30;80.70;;;;;;5014854;28;20041;-76
2022/06/25 00:23:38;;;;;;;5.35;1.38;;;24.30;80.40;;;;;;5014440;28;20026;-77
2022/06/25 00:26:04;;;;;;;4.85;1.42;;;24.30;80.40;;;;;;5014804;28;20034;-77
2022/06/25 00:28:29;;;;;;;3.60;1.27;;;24.30;80.60;;;;;;5014781;28;20526;-76
2022/06/25 00:30:55;;;;;;;3.90;1.42;;;24.30;80.50;;;;;;5014392;28;20049;-76
2022/06/25 00:33:20;;;;;;;1.92;1.00;;;24.20;80.80;;;;;;5013786;28;20371;-75
2022/06/25 00:35:46;;;;;;;3.85;1.40;;;24.20;80.40;;;;;;5014563;28;20038;-76
2022/06/25 00:38:12;;;;;;;5.35;1.48;;;24.20;80.40;;;;;;5014715;28;20028;-77
2022/06/25 00:40:37;;;;;;;4.57;1.55;;;24.20;80.50;;;;;;5014600;28;20064;-76
2022/06/25 00:43:03;;;;;;;2.92;1.67;;;24.20;80.30;;;;;;5013841;28;20434;-77
2022/06/25 00:45:28;;;;;;;2.28;1.33;;;24.30;80.70;;;;;;5014169;28;20068;-76
2022/06/25 00:47:54;;;;;;;2.10;1.10;;;24.20;79.90;;;;;;5014210;28;20356;-77
2022/06/25 00:50:19;;;;;;;3.75;1.20;;;24.20;80.20;;;;;;5014352;28;20052;-76
2022/06/25 00:52:52;;;;;;;3.03;1.13;;;24.20;79.80;;;;;;5014528;28;20026;-76
2022/06/25 00:55:20;;;;;;;2.30;1.17;;;24.10;80.00;;;;;;5013972;28;20487;-76
2022/06/25 00:57:50;;;;;;;3.92;1.35;;;24.10;80.00;;;;;;5014108;28;20054;-77
2022/06/25 01:00:17;;;;;;;2.55;1.08;;;24.10;79.90;;;;;;5013738;28;20030;-77
2022/06/25 01:02:44;;;;;;;3.65;1.50;;;24.10;80.00;;;;;;5014397;28;20071;-76
2022/06/25 01:05:12;;;;;;;2.33;1.30;;;24.10;79.60;;;;;;5013857;28;20025;-76
2022/06/25 01:07:39;;;;;;;4.93;1.50;;;24.10;79.80;;;;;;5014112;28;20057;-77
2022/06/25 01:10:06;;;;;;;4.30;1.60;;;24.10;79.40;;;;;;5013770;28;20015;-77
2022/06/25 01:12:32;;;;;;;3.63;1.52;;;24.00;79.50;;;;;;5013662;28;20030;-78
2022/06/25 01:15:12;;;;;;;4.90;1.48;;;24.00;79.40;;;;;;5013576;28;20378;-77
2022/06/25 01:17:42;;;;;;;3.28;1.63;;;24.00;79.50;;;;;;5014023;28;20109;-77
2022/06/25 01:20:09;;;;;;;4.38;1.50;;;24.00;79.40;;;;;;5014045;28;20104;-74
2022/06/25 01:22:34;;;;;;;4.95;1.40;;;24.00;79.50;;;;;;5013505;28;20475;-76
2022/06/25 01:25:00;;;;;;;3.17;1.50;;;23.90;79.70;;;;;;5013698;28;20030;-76
2022/06/25 01:27:26;;;;;;;4.10;1.70;;;23.90;80.00;;;;;;5014301;28;20025;-74
2022/06/25 01:29:51;;;;;;;3.40;1.58;;;23.90;79.80;;;;;;5013374;28;20030;-74
2022/06/25 01:32:17;;;;;;;3.22;1.45;;;23.90;79.70;;;;;;5013404;28;20029;-75
2022/06/25 01:34:42;;;;;;;3.08;1.50;;;23.80;79.70;;;;;;5012580;28;20018;-77
2022/06/25 01:37:08;;;;;;;5.95;1.52;;;23.90;79.70;;;;;;5013516;28;20053;-74
2022/06/25 01:39:34;;;;;;;5.47;1.42;;;23.90;79.60;;;;;;5013300;28;20014;-76
2022/06/25 01:42:00;;;;;;;4.53;1.48;;;23.80;80.70;;;;;;5013138;28;20068;-75
2022/06/25 01:44:26;;;;;;;3.42;1.77;;;23.80;79.90;;;;;;5012973;28;20014;-75
2022/06/25 01:46:51;;;;;;;4.78;1.48;;;23.80;80.00;;;;;;5013568;28;20489;-76
2022/06/25 01:49:17;;;;;;;3.38;1.38;;;23.70;80.10;;;;;;5013496;28;20492;-75
2022/06/25 01:51:43;;;;;;;4.75;1.23;;;23.70;80.50;;;;;;5013054;28;20052;-76
2022/06/25 01:54:08;;;;;;;4.72;1.58;;;23.70;80.40;;;;;;5013268;28;20454;-75
2022/06/25 01:56:34;;;;;;;4.85;1.60;;;23.70;79.90;;;;;;5011351;28;20490;-75
2022/06/25 01:59:00;;;;;;;4.13;1.45;;;23.80;79.60;;;;;;5007332;28;20030;-75
2022/06/25 02:01:25;;;;;;;3.47;1.40;;;23.70;79.40;;;;;;5009556;28;20500;-75
2022/06/25 02:03:51;;;;;;;6.38;1.67;;;23.70;79.40;;;;;;5012854;28;20449;-76
2022/06/25 02:06:17;;;;;;;3.83;1.35;;;23.70;79.70;;;;;;5012259;28;20053;-74
2022/06/25 02:08:42;;;;;;;2.53;0.98;;;23.70;79.40;;;;;;5012711;28;20026;-77
2022/06/25 02:11:09;;;;;;;3.30;1.42;;;23.70;79.20;;;;;;5011754;28;20479;-77
2022/06/25 02:13:35;;;;;;;3.35;1.13;;;23.70;79.20;;;;;;5011033;28;20037;-75
2022/06/25 02:16:01;;;;;;;5.15;1.50;;;23.60;79.60;;;;;;5012992;28;20034;-75
2022/06/25 02:18:27;;;;;;;3.90;1.35;;;23.60;79.50;;;;;;5013165;28;20018;-75
2022/06/25 02:20:53;;;;;;;3.25;1.38;;;23.60;79.50;;;;;;5011808;28;20037;-76
2022/06/25 02:23:20;;;;;;;3.67;1.40;;;23.60;79.40;;;;;;5013179;28;20018;-77
2022/06/25 02:25:46;;;;;;;3.65;1.20;;;23.60;79.30;;;;;;5012632;28;20018;-77
2022/06/25 02:28:12;;;;;;;2.22;0.65;;;23.60;79.10;;;;;;5012743;28;20048;-76
2022/06/25 02:30:38;;;;;;;7.32;1.40;;;23.60;80.40;;;;;;5013100;28;20034;-76
2022/06/25 02:33:07;;;;;;;3.03;1.17;;;23.60;79.50;;;;;;5012754;28;20096;-77
2022/06/25 02:35:33;;;;;;;3.40;1.45;;;23.60;79.50;;;;;;5013082;28;20105;-77
2022/06/25 02:37:58;;;;;;;6.20;1.63;;;23.60;79.00;;;;;;4994821;28;20113;-77
2022/06/25 02:40:24;;;;;;;3.60;1.50;;;23.60;78.50;;;;;;5013010;28;20101;-76
2022/06/25 02:42:50;;;;;;;4.60;1.20;;;23.60;78.60;;;;;;5013354;28;20527;-75
2022/06/25 02:45:15;;;;;;;3.95;1.20;;;23.60;78.90;;;;;;5013058;28;20474;-74
2022/06/25 02:47:41;;;;;;;4.22;1.33;;;23.50;79.00;;;;;;5012744;28;20022;-74
2022/06/25 02:50:07;;;;;;;6.38;1.38;;;23.50;79.40;;;;;;5012511;28;20044;-74
2022/06/25 02:52:33;;;;;;;3.78;1.45;;;23.40;79.30;;;;;;4994286;28;20030;-77
2022/06/25 02:54:59;;;;;;;5.68;1.40;;;23.40;79.10;;;;;;5009010;28;20529;-74
2022/06/25 03:00:10;;;;;;;4.93;1.30;;;23.40;79.20;;;;;;5015563;28;20125;-74
2022/06/25 03:02:35;;;;;;;3.35;1.35;;;23.40;79.20;;;;;;5015573;28;20487;-75
2022/06/25 03:05:02;;;;;;;3.80;1.27;;;23.40;79.10;;;;;;5014960;28;20072;-74
2022/06/25 03:07:28;;;;;;;4.18;1.70;;;23.40;79.70;;;;;;4997539;28;20033;-75
2022/06/25 03:09:54;;;;;;;4.65;1.42;;;23.40;79.20;;;;;;5015887;28;20061;-77
2022/06/25 03:12:20;;;;;;;4.88;1.52;;;23.30;79.80;;;;;;5014841;28;20104;-74
2022/06/25 03:14:45;;;;;;;4.35;1.52;;;23.30;79.80;;;;;;5015612;28;20018;-74
2022/06/25 03:17:11;;;;;;;5.85;1.77;;;23.30;79.70;;;;;;5015102;28;20436;-74
2022/06/25 03:19:36;;;;;;;4.10;1.20;;;23.30;79.70;;;;;;5016036;28;20022;-73
2022/06/25 03:22:02;;;;;;;4.15;2.00;;;23.30;79.60;;;;;;5015694;28;20041;-74
2022/06/25 03:24:28;;;;;;;3.38;1.35;;;23.30;79.40;;;;;;5014678;28;20022;-74
2022/06/25 03:26:54;;;;;;;3.65;1.23;;;23.30;79.20;;;;;;5015696;28;20105;-74
2022/06/25 03:29:19;;;;;;;3.10;1.58;;;23.30;79.30;;;;;;5031002;28;20575;-77
2022/06/25 03:31:45;;;;;;;3.20;1.48;;;23.30;79.20;;;;;;5015831;28;20014;-75
2022/06/25 03:34:11;;;;;;;3.17;0.93;;;23.30;79.70;;;;;;5015580;28;20037;-74
2022/06/25 03:36:37;;;;;;;5.65;1.27;;;23.30;80.00;;;;;;5015836;28;20045;-75
2022/06/25 03:39:03;;;;;;;3.03;1.15;;;23.20;80.20;;;;;;5015687;28;20084;-77
2022/06/25 03:41:38;;;;;;;3.85;1.45;;;23.20;80.10;;;;;;5015671;28;20038;-77
2022/06/25 03:44:05;;;;;;;3.35;1.30;;;23.30;80.00;;;;;;5015651;28;20038;-76
2022/06/25 03:46:33;;;;;;;4.05;1.15;;;23.20;80.00;;;;;;5016100;28;20057;-76
2022/06/25 03:49:00;;;;;;;5.15;1.40;;;23.20;80.90;;;;;;5031784;28;20487;-75
2022/06/25 03:51:26;;;;;;;3.25;1.10;;;23.10;80.70;;;;;;5016099;28;20022;-74
2022/06/25 03:53:51;;;;;;;2.72;1.20;;;23.20;81.00;;;;;;5015290;28;20479;-74
2022/06/25 03:56:17;;;;;;;1.90;0.88;;;23.10;80.90;;;;;;5015493;28;20045;-75
2022/06/25 03:58:43;;;;;;;6.95;1.13;;;23.20;81.10;;;;;;5015526;28;20029;-74
2022/06/25 04:01:08;;;;;;;3.33;0.75;;;23.20;81.00;;;;;;5015364;28;20509;-75
2022/06/25 04:03:34;;;;;;;4.28;1.17;;;23.10;81.30;;;;;;5015110;28;20046;-76
2022/06/25 04:06:00;;;;;;;1.83;0.82;;;23.10;81.20;;;;;;5015464;28;20100;-75
2022/06/25 04:08:26;;;;;;;2.97;0.90;;;23.10;81.40;;;;;;5014130;28;20029;-75
2022/06/25 04:10:51;;;;;;;3.13;1.05;;;23.10;82.00;;;;;;5015307;28;20044;-76
2022/06/25 04:13:17;;;;;;;5.25;1.33;;;23.10;81.80;;;;;;5015173;28;20495;-77
2022/06/25 04:15:42;;;;;;;2.00;0.77;;;23.10;81.80;;;;;;5014950;28;20026;-76
2022/06/25 04:18:08;;;;;;;3.17;1.02;;;23.10;82.10;;;;;;5014183;28;20084;-77
2022/06/25 04:20:34;;;;;;;3.88;0.90;;;23.10;82.00;;;;;;5015544;28;20038;-77
2022/06/25 04:23:00;;;;;;;2.60;0.90;;;23.20;82.30;;;;;;5014537;28;20018;-77
2022/06/25 04:25:26;;;;;;;6.38;1.27;;;23.20;81.80;;;;;;5013366;28;20105;-77
2022/06/25 04:30:36;;;;;;;3.38;1.15;;;23.20;81.90;;;;;;5014675;28;20085;-74
2022/06/25 04:33:01;;;;;;;3.10;0.82;;;23.20;82.20;;;;;;5014712;28;20379;-75
2022/06/25 04:35:27;;;;;;;2.10;0.80;;;23.20;82.30;;;;;;5014509;28;20541;-75
2022/06/25 04:37:53;;;;;;;3.10;0.90;;;23.20;82.20;;;;;;5014154;28;20033;-77
2022/06/25 04:40:18;;;;;;;2.00;0.85;;;23.10;82.40;;;;;;4997218;28;20033;-75
2022/06/25 04:42:45;;;;;;;2.03;0.77;;;23.10;82.60;;;;;;5014231;28;20037;-76
2022/06/25 04:45:11;;;;;;;5.10;0.95;;;23.10;82.50;;;;;;5014077;28;20110;-75
2022/06/25 04:47:36;;;;;;;2.05;0.90;;;23.10;82.60;;;;;;5014212;28;20061;-77
2022/06/25 04:50:02;;;;;;;3.22;0.90;;;23.20;82.60;;;;;;5013125;28;20033;-77
2022/06/25 04:52:28;;;;;;;2.05;0.70;;;23.20;82.60;;;;;;5014076;28;20037;-78
2022/06/25 04:54:54;;;;;;;4.43;0.75;;;23.20;82.50;;;;;;5013883;28;20030;-75
2022/06/25 04:57:20;;;;;;;4.05;0.80;;;23.10;82.50;;;;;;5014204;28;20029;-78
2022/06/25 04:59:45;;;;;;;2.25;0.70;;;23.10;82.70;;;;;;5014369;28;20045;-78
2022/06/25 05:02:11;;;;;;;3.97;1.00;;;23.10;82.90;;;;;;5012286;28;20403;-75
2022/06/25 05:04:36;;;;;;;2.50;0.70;;;23.10;82.70;;;;;;5013996;28;20026;-77
2022/06/25 05:07:02;;;;;;;2.92;0.80;;;23.10;82.90;;;;;;5014224;28;20022;-77
2022/06/25 05:09:28;;;;;;;3.13;0.65;;;23.10;82.90;;;;;;5018786;28;20038;-76
2022/06/25 05:11:53;;;;;;;4.35;0.95;;;23.20;83.00;;;;;;5015548;28;20040;-78
2022/06/25 05:14:19;;;;;;;2.28;0.90;;;23.20;83.00;;;;;;5014139;28;20034;-77
2022/06/25 05:16:47;;;;;;;3.35;1.08;;;23.20;83.00;;;;;;5014015;28;20025;-78
2022/06/25 05:19:13;;;;;;;2.10;0.60;;;23.20;83.20;;;;;;5013760;28;20109;-77
2022/06/25 05:21:39;;;;;;;3.63;0.95;;;23.10;83.10;;;;;;5013531;28;20117;-78
2022/06/25 05:24:05;;;;;;;4.28;0.98;;;23.10;83.10;;;;;;5013917;28;20029;-77
2022/06/25 05:26:31;;;;;;;2.30;0.98;;;23.10;83.40;;;;;;5013670;28;20037;-77
2022/06/25 05:28:57;;;;;;;5.45;1.00;;;23.10;83.20;;;;;;5013839;28;20048;-77
2022/06/25 05:31:22;;;;;;;2.53;0.80;;;23.10;83.10;;;;;;5013534;28;20085;-77
2022/06/25 05:33:49;;;;;;;4.10;1.02;;;23.10;83.20;;;;;;5013641;28;20025;-76
2022/06/25 05:36:14;;;;;;;4.75;0.95;;;23.10;83.30;;;;;;5013503;28;20018;-78
2022/06/25 05:38:40;;;;;;;2.67;1.13;;;23.20;83.30;;;;;;5013682;28;20017;-78
2022/06/25 05:41:08;;;;;;;3.10;1.00;;;23.10;83.30;;;;;;5013881;28;20117;-77
2022/06/25 05:43:35;;;;;;;2.97;1.00;;;23.10;83.30;;;;;;5013742;28;20030;-76
2022/06/25 05:46:01;;;;;;;5.63;1.10;;;23.10;83.40;;;;;;5015965;28;20088;-78
2022/06/25 05:48:27;;;;;;;3.78;1.15;;;23.10;83.50;;;;;;5020020;28;20095;-76
2022/06/25 05:50:52;;;;;;;2.00;1.08;;;23.10;83.70;;;;;;5014683;28;20057;-74
2022/06/25 05:53:18;;;;;;;4.20;1.33;;;23.10;83.60;;;;;;5013607;28;20026;-78
2022/06/25 05:55:44;;;;;;;4.45;1.25;;;23.10;83.70;;;;;;5013332;28;20066;-75
2022/06/25 05:58:10;;;;;;;4.63;0.98;;;23.10;83.60;;;;;;5013512;28;20061;-74
2022/06/25 06:00:35;;;;;;;4.78;1.13;;;23.10;83.60;;;;;;5013475;28;20051;-75
2022/06/25 06:03:01;;;;;;;4.93;0.98;;;23.10;83.50;;;;;;5013337;28;20030;-74
2022/06/25 06:05:27;;;;;;;2.97;0.95;;;23.10;83.70;;;;;;5013058;28;20467;-78
2022/06/25 06:07:53;;;;;;;2.15;0.90;;;23.10;83.90;;;;;;5013012;28;20033;-76
2022/06/25 06:10:18;;;;;;;2.33;0.93;;;23.10;83.60;;;;;;5013139;28;20034;-75
2022/06/25 06:12:44;;;;;;;2.08;1.05;;;23.10;84.00;;;;;;5013225;28;20022;-75
2022/06/25 06:15:10;;;;;;;2.05;0.90;;;23.10;83.70;;;;;;5013193;28;20515;-76
2022/06/25 06:17:35;;;;;;;2.63;0.60;;;23.10;83.80;;;;;;5013234;28;20053;-75
2022/06/25 06:20:01;;;;;;;3.28;0.77;;;23.10;83.70;;;;;;5012898;28;20049;-74
2022/06/25 06:22:27;;;;;;;3.95;0.75;;;23.20;84.10;;;;;;5013199;28;20030;-75
2022/06/25 06:24:53;;;;;;;2.90;0.65;;;23.20;84.10;;;;;;5013203;28;20108;-74
2022/06/25 06:27:18;;;;;;;1.58;0.55;;;23.20;84.20;;;;;;5013058;28;20033;-74
2022/06/25 06:29:44;;;;;;;2.58;0.90;;;23.20;84.20;;;;;;5013209;28;20037;-77
2022/06/25 06:32:10;;;;;;;3.60;0.82;;;23.20;84.00;;;;;;5015673;28;20021;-77
2022/06/25 06:34:35;;;;;;;2.42;0.70;;;23.20;84.20;;;;;;5015008;28;20546;-79
2022/06/25 06:37:01;;;;;;;2.95;0.60;;;23.20;84.30;;;;;;5010438;28;20030;-78
2022/06/25 06:39:27;;;;;;;2.08;0.70;;;23.20;84.40;;;;;;5013144;28;20618;-77
2022/06/25 06:41:53;;;;;;;1.33;0.60;;;23.20;84.30;;;;;;5001865;28;20067;-80
2022/06/25 06:44:18;;;;;;;2.15;0.65;;;23.20;84.30;;;;;;5004655;28;20045;-78
2022/06/25 06:46:44;;;;;;;1.88;0.50;;;23.20;84.40;;;;;;5010204;28;20029;-79
2022/06/25 06:49:09;;;;;;;2.05;0.60;;;23.30;84.40;;;;;;5015224;28;20034;-78
2022/06/25 06:51:35;;;;;;;2.95;0.75;;;23.30;84.60;;;;;;5013079;28;20542;-79
2022/06/25 06:54:00;;;;;;;3.58;0.80;;;23.30;84.30;;;;;;5001073;28;20109;-78
2022/06/25 06:56:26;;;;;;;3.45;0.95;;;23.20;84.10;;;;;;5013242;28;20022;-77
2022/06/25 06:58:52;;;;;;;4.88;1.05;;;23.00;85.30;;;;;;4988054;28;20026;-79
2022/06/25 07:01:17;;;;;;;2.40;0.60;;;22.90;85.90;;;;;;5013122;28;20093;-78
2022/06/25 07:03:43;;;;;;;3.63;0.90;;;22.90;86.10;;;;;;5015479;28;20018;-78
2022/06/25 07:06:08;;;;;;;2.38;0.80;;;23.00;86.40;;;;;;5015514;28;20026;-79
2022/06/25 07:08:34;;;;;;;2.85;0.98;;;23.00;85.50;;;;;;5009136;28;20101;-79
2022/06/25 07:11:00;;;;;;;3.45;0.65;;;23.10;85.90;;;;;;5011191;28;20034;-78
2022/06/25 07:13:25;;;;;;;2.53;0.85;;;23.00;86.40;;;;;;5014921;28;20022;-77
2022/06/25 07:15:51;;;;;;;4.82;1.00;;;23.10;85.70;;;;;;5012609;28;20649;-78
2022/06/25 07:18:16;;;;;;;3.00;1.20;;;23.00;85.70;;;;;;5010753;28;20033;-78
2022/06/25 07:20:42;;;;;;;6.25;1.45;;;22.70;86.60;;;;;;5014501;28;20028;-78
2022/06/25 07:23:08;;;;;;;5.28;1.33;;;22.80;87.40;;;;;;5009072;28;20030;-78
2022/06/25 07:25:34;;;;;;;4.43;1.52;;;22.70;87.90;;;;;;5014718;28;20025;-77
2022/06/25 07:28:00;;;;;;;4.68;1.48;;;22.40;89.80;;;;;;5014389;28;20117;-76
2022/06/25 07:30:25;;;;;;;8.98;1.90;;;22.40;90.10;;;;;;5005894;28;20098;-77
2022/06/25 07:32:51;;;;;;;3.10;1.23;;;22.50;90.00;;;;;;5011186;28;20084;-76
2022/06/25 07:35:17;;;;;;;3.05;0.90;;;22.90;88.30;;;;;;5008089;28;20427;-74
2022/06/25 07:37:42;;;;;;;4.15;0.50;;;23.10;87.30;;;;;;5009025;28;20029;-76
2022/06/25 07:40:09;;;;;;;3.25;0.93;;;23.20;87.00;;;;;;5006922;28;20035;-77
2022/06/25 07:42:34;;;;;;;1.83;0.85;;;23.20;86.80;;;;;;5006253;28;20034;-78
2022/06/25 07:45:00;;;;;;;2.80;0.77;;;23.20;86.60;;;;;;4992337;28;20046;-78
2022/06/25 07:47:25;;;;;;;2.97;0.93;;;23.20;86.70;;;;;;4992785;28;20068;-78
2022/06/25 07:52:35;;;;;;;4.85;1.92;;;23.30;86.30;;;;;;5010703;28;20109;-78
2022/06/25 07:55:03;;;;;;;2.92;1.63;;;23.30;86.10;;;;;;5012635;28;20030;-78
2022/06/25 07:57:29;;;;;;;3.72;1.75;;;23.30;86.10;;;;;;5013175;28;20025;-76
2022/06/25 07:59:54;;;;;;;7.28;1.90;;;23.30;86.00;;;;;;5014252;28;20117;-79
2022/06/25 08:02:20;;;;;;;3.30;1.85;;;23.30;86.00;;;;;;5011324;28;20478;-79
2022/06/25 08:04:46;;;;;;;6.68;1.90;;;23.20;86.10;;;;;;5014419;28;20041;-77
2022/06/25 08:07:12;;;;;;;5.05;2.33;;;23.20;85.90;;;;;;5015163;28;20501;-77
2022/06/25 08:09:38;;;;;;;6.40;2.78;;;23.30;85.80;;;;;;4996626;28;20482;-78
2022/06/25 08:12:04;;;;;;;12.45;6.82;;;23.30;85.80;;;;;;5014767;28;20062;-79
2022/06/25 08:14:29;;;;;;;7.43;4.22;;;23.30;85.10;;;;;;5011754;28;20483;-79
2022/06/25 08:16:55;;;;;;;3.90;2.33;;;23.40;85.10;;;;;;5014354;28;20467;-77
2022/06/25 08:19:22;;;;;;;6.88;2.90;;;23.30;86.00;;;;;;5024376;28;20045;-80
2022/06/25 08:21:48;;;;;;;7.78;3.53;;;23.20;86.10;;;;;;5012535;28;20065;-77
2022/06/25 08:24:13;;;;;;;8.95;4.68;;;23.20;86.10;;;;;;5011391;28;21707;-76
2022/06/25 08:26:39;;;;;;;11.20;5.10;;;23.20;85.80;;;;;;5016162;28;20061;-78
2022/06/25 08:29:05;;;;;;;8.52;4.60;;;23.30;84.90;;;;;;4987244;28;20041;-78
2022/06/25 08:31:30;;;;;;;5.97;3.58;;;23.40;85.00;;;;;;5011851;28;20471;-79
2022/06/25 08:33:56;;;;;;;7.53;4.50;;;23.30;84.90;;;;;;5012452;28;20030;-76
2022/06/25 08:36:22;;;;;;;6.95;4.13;;;23.30;85.40;;;;;;5015936;28;20096;-79
2022/06/25 08:38:47;;;;;;;12.27;5.38;;;23.30;84.70;;;;;;5012530;28;20099;-78
2022/06/25 08:41:13;;;;;;;12.20;5.80;;;23.30;85.20;;;;;;5011477;28;20042;-77
2022/06/25 08:43:40;;;;;;;10.27;5.20;;;23.30;84.90;;;;;;5013281;28;20109;-77
2022/06/25 08:46:06;;;;;;;7.18;4.60;;;23.30;84.70;;;;;;4993380;28;20030;-77
2022/06/25 08:48:33;;;;;;;6.20;3.78;;;23.20;84.70;;;;;;5011672;28;20499;-76
2022/06/25 08:50:59;;;;;;;6.18;4.07;;;23.20;84.20;;;;;;5010729;28;20037;-77
2022/06/25 08:53:31;;;;;;;6.97;4.75;;;23.20;84.20;;;;;;5011871;28;20029;-79
2022/06/25 08:55:57;;;;;;;8.23;4.18;;;23.20;84.30;;;;;;5012781;28;20108;-77
2022/06/25 08:58:22;;;;;;;6.38;3.90;;;23.30;84.20;;;;;;5008406;28;20113;-76
2022/06/25 09:00:48;;;;;;;6.55;3.92;;;23.40;83.80;;;;;;5010020;28;20037;-78
2022/06/25 09:03:14;;;;;;;9.73;3.47;;;23.40;82.50;;;;;;4990031;28;20531;-77
2022/06/25 09:05:42;;;;;;;6.07;4.10;;;23.40;82.50;;;;;;4999618;28;20025;-77
2022/06/25 09:08:10;;;;;;;8.40;4.15;;;23.40;83.00;;;;;;5010925;28;20032;-77
2022/06/25 09:10:37;;;;;;;6.10;3.28;;;23.40;82.90;;;;;;5010747;28;20026;-78
2022/06/25 09:13:06;;;;;;;5.35;3.25;;;23.40;82.00;;;;;;5010488;28;20548;-78
2022/06/25 09:15:43;;;;;;;5.85;3.42;;;23.40;82.00;;;;;;5006628;28;20034;-77
2022/06/25 09:18:14;;;;;;;6.30;3.47;;;23.40;82.30;;;;;;5007684;28;20065;-78
2022/06/25 09:20:59;;;;;;;10.38;3.50;;;23.40;82.30;;;;;;5003360;28;20028;-78
2022/06/25 09:23:26;;;;;;;6.93;3.92;;;23.40;82.00;;;;;;5011906;28;20028;-78
2022/06/25 09:26:11;;;;;;;7.90;3.90;;;23.40;82.70;;;;;;5013926;28;20025;-78
2022/06/25 09:28:39;;;;;;;6.43;3.30;;;23.40;83.10;;;;;;5003812;28;20387;-77
2022/06/25 09:31:07;;;;;;;6.55;3.03;;;23.50;83.20;;;;;;5004182;28;20033;-78
2022/06/25 09:33:35;;;;;;;6.80;3.70;;;23.60;83.10;;;;;;5003220;28;20045;-79
2022/06/25 09:36:01;;;;;;;9.20;3.60;;;23.60;83.20;;;;;;4999718;28;20027;-78
2022/06/25 09:38:27;;;;;;;6.43;3.20;;;23.60;83.70;;;;;;5004109;28;20021;-77
2022/06/25 09:40:57;;;;;;;5.88;3.00;;;23.60;83.70;;;;;;5006592;28;20037;-77
2022/06/25 09:43:36;;;;;;;6.32;2.97;;;23.60;84.50;;;;;;4984808;28;20038;-78
2022/06/25 09:46:04;;;;;;;6.38;3.15;;;23.70;83.90;;;;;;5001426;28;20026;-77
2022/06/25 09:48:32;;;;;;;5.70;2.72;;;23.70;83.80;;;;;;5007862;28;20028;-78
2022/06/25 09:51:24;;;;;;;5.90;2.88;;;23.70;83.90;;;;;;5005971;28;20036;-75
2022/06/25 09:53:51;;;;;;;9.18;3.47;;;23.70;83.90;;;;;;5003380;28;20509;-78
2022/06/25 09:56:25;;;;;;;9.68;3.33;;;23.70;83.90;;;;;;5004799;28;20026;-78
2022/06/25 09:58:53;;;;;;;4.50;2.05;;;23.70;83.80;;;;;;4987181;28;20080;-78
2022/06/25 10:01:21;;;;;;;4.80;2.08;;;23.80;83.70;;;;;;5006939;28;20041;-75
2022/06/25 10:03:47;;;;;;;3.60;2.10;;;23.80;83.60;;;;;;5009869;28;20029;-78
2022/06/25 10:06:15;;;;;;;3.95;1.42;;;23.90;83.60;;;;;;5009242;28;20032;-78
2022/06/25 10:08:45;;;;;;;5.07;1.80;;;23.90;83.50;;;;;;5006665;28;20387;-78
2022/06/25 10:11:12;;;;;;;5.45;1.83;;;23.90;83.70;;;;;;5002640;28;20101;-78
2022/06/25 10:13:39;;;;;;;4.55;2.45;;;23.90;83.60;;;;;;5006391;28;20460;-77
2022/06/25 10:16:05;;;;;;;3.88;1.67;;;23.90;83.30;;;;;;5007871;28;20070;-78
2022/06/25 10:18:31;;;;;;;5.10;1.90;;;23.90;83.20;;;;;;5007872;28;20049;-75
2022/06/25 10:20:57;;;;;;;4.85;2.38;;;24.00;83.10;;;;;;5009923;28;20109;-75
2022/06/25 10:23:25;;;;;;;4.40;1.70;;;24.00;83.10;;;;;;5009510;28;20457;-78
2022/06/25 10:25:51;;;;;;;5.75;2.08;;;24.00;82.90;;;;;;5007566;28;20022;-79
2022/06/25 10:28:25;;;;;;;3.50;1.65;;;24.10;82.80;;;;;;4990700;28;20538;-75
2022/06/25 10:30:58;;;;;;;5.35;1.52;;;24.10;82.70;;;;;;5008054;28;20026;-78
2022/06/25 10:33:29;;;;;;;3.75;1.60;;;24.10;82.60;;;;;;5005156;28;20033;-74
2022/06/25 10:36:04;;;;;;;2.60;1.13;;;24.10;82.50;;;;;;5004397;28;20045;-77
2022/06/25 10:38:30;;;;;;;4.35;1.10;;;24.10;83.10;;;;;;5009785;28;20026;-79
2022/06/25 10:42:58;;;;;;;4.65;1.20;;;24.10;82.40;;;;;;5006816;28;20056;-79
2022/06/25 10:43:47;;;;;;;6.60;1.45;;;24.10;83.10;;;;;;5007590;28;20456;-74
2022/06/25 10:46:28;;;;;;;3.50;1.42;;;24.20;84.80;;;;;;5000141;28;20042;-77
2022/06/25 10:49:08;;;;;;;4.75;2.60;;;24.20;86.60;;;;;;5001160;28;20089;-79
2022/06/25 10:51:50;;;;;;;4.07;1.95;;;24.20;90.90;;;;;;4999662;28;20057;-76
2022/06/25 10:54:22;;;;;;;9.05;5.18;;;24.30;89.90;;;;;;5005020;28;20033;-81
2022/06/25 10:56:49;;;;;;;9.50;8.38;;;24.30;92.10;;;;;;5003627;28;20047;-83
2022/06/25 10:59:45;;;;;;;6.35;5.65;;;24.30;94.40;;;;;;5001309;28;20022;-81
2022/06/25 11:02:16;;;;;;;8.93;7.13;;;24.40;93.40;;;;;;4980698;28;20220;-79
2022/06/25 11:04:52;;;;;;;10.33;6.87;;;24.40;94.10;;;;;;5003578;28;20387;-81
2022/06/25 11:07:23;;;;;;;7.43;5.35;;;24.30;94.50;;;;;;4995615;28;20289;-74
2022/06/25 11:10:00;;;;;;;5.10;4.30;;;24.40;94.10;;;;;;4996432;28;20145;-78
2022/06/25 11:12:28;;;;;;;18.30;11.13;;;24.40;92.80;;;;;;5002939;28;20018;-74
2022/06/25 11:15:02;;;;;;;30.75;20.95;;;24.40;92.80;;;;;;5007244;28;20037;-76
2022/06/25 11:17:28;;;;;;;31.10;19.17;;;24.40;93.30;;;;;;5006434;28;20037;-71
2022/06/25 11:20:00;;;;;;;28.45;19.17;;;24.40;93.20;;;;;;5011973;28;20034;-75
2022/06/25 11:22:26;;;;;;;;;;;24.40;93.60;;;;;;4995280;28;20057;-75
2022/06/25 11:30:20;;;;;;;20.58;15.23;;;24.50;92.30;;;;;;5005714;28;20044;-78
2022/06/25 11:32:46;;;;;;;23.85;13.82;;;24.50;92.90;;;;;;5011409;28;20341;-76
2022/06/25 11:35:12;;;;;;;23.65;11.65;;;24.50;92.40;;;;;;5009892;28;20120;-77
2022/06/25 11:37:38;;;;;;;24.05;12.05;;;24.50;92.20;;;;;;5020797;28;20026;-75
2022/06/25 11:40:13;;;;;;;21.75;11.70;;;24.50;92.00;;;;;;5006963;28;20088;-75
2022/06/25 11:42:38;;;;;;;20.38;11.10;;;24.60;92.20;;;;;;5016524;28;20444;-78
2022/06/25 11:45:05;;;;;;;22.63;10.70;;;24.60;91.90;;;;;;5012633;28;20478;-78
2022/06/25 11:47:30;;;;;;;22.50;10.38;;;24.60;91.70;;;;;;5010245;28;20136;-77
2022/06/25 11:49:56;;;;;;;12.02;5.68;;;24.50;91.60;;;;;;5008418;28;20143;-76
2022/06/25 11:52:25;;;;;;;14.70;6.90;;;24.60;90.10;;;;;;5011073;28;20050;-77
2022/06/25 11:54:52;;;;;;;14.75;6.80;;;24.60;90.30;;;;;;5012266;28;20092;-75
2022/06/25 11:57:25;;;;;;;9.88;5.28;;;24.60;90.20;;;;;;5009529;28;20502;-75
2022/06/25 11:59:52;;;;;;;12.48;5.80;;;24.60;89.60;;;;;;5007879;28;20089;-76
2022/06/25 12:02:18;;;;;;;5.20;2.92;;;24.60;89.00;;;;;;5009664;28;20045;-77
2022/06/25 12:04:56;;;;;;;4.20;2.10;;;24.60;87.20;;;;;;5011226;28;20161;-77
2022/06/25 12:07:33;;;;;;;6.22;2.78;;;24.70;85.80;;;;;;5011455;28;20029;-75
2022/06/25 12:10:07;;;;;;;9.98;2.17;;;24.60;85.50;;;;;;5012885;28;20033;-75
2022/06/25 12:12:34;;;;;;;9.15;2.47;;;24.70;84.80;;;;;;5010155;28;20041;-76
2022/06/25 12:15:03;;;;;;;5.70;2.28;;;24.70;85.80;;;;;;5011962;28;20030;-76
2022/06/25 12:17:37;;;;;;;6.78;2.35;;;24.70;84.70;;;;;;4991825;28;20506;-75
2022/06/25 12:20:07;;;;;;;7.55;2.50;;;24.60;85.10;;;;;;5009993;28;20029;-75
2022/06/25 12:22:40;;;;;;;6.53;2.15;;;24.60;85.60;;;;;;5012613;28;20034;-76
2022/06/25 12:25:06;;;;;;;8.68;2.67;;;24.60;85.90;;;;;;5013096;28;20033;-75
2022/06/25 12:27:44;;;;;;;3.00;1.15;;;24.60;85.60;;;;;;5013040;28;20109;-76
2022/06/25 12:30:10;;;;;;;3.75;1.25;;;24.60;84.70;;;;;;5013734;28;20018;-76
2022/06/25 12:32:41;;;;;;;2.95;1.05;;;24.70;83.60;;;;;;5013444;28;20037;-76
2022/06/25 12:35:20;;;;;;;4.32;1.20;;;24.60;83.00;;;;;;5014141;28;20018;-74
2022/06/25 12:38:09;;;;;;;3.53;0.60;;;24.60;83.30;;;;;;5013425;28;20030;-75
2022/06/25 12:40:42;;;;;;;4.28;1.00;;;24.60;83.60;;;;;;5014133;28;20034;-76
2022/06/25 12:43:09;;;;;;;2.45;1.17;;;24.60;83.40;;;;;;5013507;28;20037;-76
2022/06/25 12:45:36;;;;;;;3.25;1.00;;;24.60;83.00;;;;;;5013723;28;20483;-76
2022/06/25 12:48:03;;;;;;;4.90;1.35;;;24.60;82.80;;;;;;5013079;28;20422;-74
2022/06/25 12:50:34;;;;;;;2.42;0.85;;;24.60;82.80;;;;;;5013501;28;20026;-74
2022/06/25 12:53:15;;;;;;;2.60;0.80;;;24.60;83.00;;;;;;5013526;28;20025;-75
2022/06/25 12:55:50;;;;;;;4.93;0.88;;;24.60;82.80;;;;;;5013498;28;20269;-75
2022/06/25 12:58:16;;;;;;;5.38;0.90;;;24.60;82.70;;;;;;5012871;28;20483;-76
2022/06/25 13:00:44;;;;;;;4.57;1.00;;;24.60;82.30;;;;;;4995641;28;20033;-74
2022/06/25 13:03:10;;;;;;;4.13;0.90;;;24.50;81.70;;;;;;5013494;28;20026;-74